Search for airport 
image banner adimage banner adimage banner ad
image banner ad

IA18 - Poyner Airport

Located in Jesup, United States

ICAO - IA18, IATA -

Data provided by Airmate  

General information

Coordinates: N42°58'25" W94°2'9"
Elevation is 1165 feet MSL.
 
View others Airports in Iowa

Operational data

Special qualification required
Current time UTC:
Current local time:
Weather at : KAXA - Algona Muni ( 22 km )
METAR: KAXA 150955Z AUTO 31004KT 10SM CLR 13/08 A3011 RMK A01
View NOTAMs / SUP AIP / TFR affecting this airport [VIEW]
Communications frequencies: [VIEW]

Runways:

RWY identifierQFULength (ft)Width (ft)SurfaceLDA (ft)
092193120GRASS
272193120GRASS

Airport contact information

Address: Jesup United States

Satellite view of IA18